createdAt,value
2022-07-31T00:02:24.406Z,2.10
2022-07-31T00:04:56.325Z,2.10
2022-07-31T00:07:28.412Z,1.90
2022-07-31T00:10:00.413Z,1.92
2022-07-31T00:12:35.483Z,2.15
2022-07-31T00:15:07.794Z,2.10
2022-07-31T00:17:39.653Z,1.80
2022-07-31T00:20:14.103Z,1.80
2022-07-31T01:11:07.117Z,1.88
2022-07-31T01:13:43.380Z,1.60
2022-07-31T01:16:16.141Z,1.90
2022-07-31T01:21:21.546Z,1.70
2022-07-31T01:24:09.384Z,2.22
2022-07-31T01:26:48.026Z,1.95
2022-07-31T01:39:34.050Z,1.80
2022-07-31T01:42:07.594Z,1.80
2022-07-31T01:44:43.643Z,1.80
2022-07-31T01:47:16.393Z,1.70
2022-07-31T01:49:49.107Z,1.80
2022-07-31T02:30:27.263Z,1.90
2022-07-31T02:33:10.798Z,1.70
2022-07-31T02:43:24.215Z,1.63
2022-07-31T02:45:57.547Z,1.80
2022-07-31T02:48:28.464Z,2.17
2022-07-31T02:50:58.871Z,1.70
2022-07-31T02:53:30.816Z,1.80
2022-07-31T02:56:02.292Z,1.80
2022-07-31T02:58:32.627Z,1.77
2022-07-31T03:01:07.178Z,1.90
2022-07-31T03:03:37.823Z,2.05
2022-07-31T03:06:08.396Z,1.83
2022-07-31T03:21:16.948Z,1.70
2022-07-31T03:23:47.218Z,1.83
2022-07-31T03:26:17.713Z,1.90
2022-07-31T03:28:48.888Z,2.10
2022-07-31T03:31:19.923Z,1.80
2022-07-31T03:33:50.329Z,1.85
2022-07-31T03:36:23.305Z,1.80
2022-07-31T03:38:53.680Z,2.10
2022-07-31T03:41:24.051Z,1.90
2022-07-31T03:43:54.466Z,2.17
2022-07-31T03:46:25.778Z,2.10
2022-07-31T03:48:56.402Z,2.10
2022-07-31T03:51:29.476Z,2.53
2022-07-31T03:54:00.064Z,2.10
2022-07-31T03:56:31.394Z,2.30
2022-07-31T03:59:01.660Z,2.25
2022-07-31T04:01:58.261Z,2.40
2022-07-31T04:04:25.320Z,2.40
2022-07-31T04:06:58.269Z,1.90
2022-07-31T04:09:29.389Z,2.47
2022-07-31T04:11:59.721Z,2.53
2022-07-31T04:14:30.006Z,2.28
2022-07-31T04:17:01.850Z,2.20
2022-07-31T04:19:32.672Z,2.42
2022-07-31T04:22:06.288Z,2.50
2022-07-31T04:24:37.055Z,2.45
2022-07-31T04:27:12.584Z,2.20
2022-07-31T04:29:43.336Z,2.30
2022-07-31T04:32:13.837Z,2.20
2022-07-31T04:34:44.237Z,2.17
2022-07-31T04:37:17.343Z,2.20
2022-07-31T04:39:47.841Z,2.10
2022-07-31T04:42:18.481Z,2.05
2022-07-31T04:44:48.826Z,2.00
2022-07-31T04:47:19.469Z,2.00
2022-07-31T04:49:49.938Z,2.20
2022-07-31T04:52:23.081Z,2.77
2022-07-31T04:54:53.432Z,2.42
2022-07-31T04:57:23.794Z,2.13
2022-07-31T04:59:59.705Z,2.10
2022-07-31T05:02:31.237Z,2.10
2022-07-31T05:05:01.783Z,2.33
2022-07-31T05:07:34.825Z,2.15
2022-07-31T05:10:05.435Z,2.40
2022-07-31T05:12:35.921Z,2.13
2022-07-31T05:15:06.518Z,2.23
2022-07-31T05:17:36.914Z,2.40
2022-07-31T05:20:07.820Z,2.10
2022-07-31T05:22:40.993Z,2.40
2022-07-31T05:25:11.918Z,2.35
2022-07-31T05:27:42.325Z,2.30
2022-07-31T05:30:13.984Z,2.40
2022-07-31T05:32:44.415Z,2.70
2022-07-31T05:35:14.833Z,2.38
2022-07-31T05:37:47.973Z,2.53
2022-07-31T05:40:18.350Z,2.33
2022-07-31T05:42:48.852Z,2.33
2022-07-31T05:45:19.531Z,2.30
2022-07-31T05:47:50.007Z,2.58
2022-07-31T05:50:21.753Z,2.40
2022-07-31T05:52:55.261Z,2.40
2022-07-31T05:55:25.662Z,2.40
2022-07-31T06:02:56.679Z,2.40
2022-07-31T06:38:12.120Z,2.40
2022-07-31T06:40:42.554Z,2.47
2022-07-31T06:43:13.905Z,2.50
2022-07-31T06:45:51.933Z,2.38
2022-07-31T06:48:22.978Z,2.85
2022-07-31T06:51:08.504Z,3.13
2022-07-31T06:53:46.666Z,2.78
2022-07-31T06:56:17.215Z,2.88
2022-07-31T06:58:47.676Z,3.00
2022-07-31T07:01:18.067Z,2.90
2022-07-31T07:03:48.589Z,3.10
2022-07-31T07:06:19.305Z,3.20
2022-07-31T07:08:52.759Z,3.00
2022-07-31T07:11:23.655Z,3.73
2022-07-31T07:13:54.142Z,3.90
2022-07-31T07:16:24.558Z,3.72
2022-07-31T07:18:55.203Z,3.60
2022-07-31T07:21:26.557Z,3.90
2022-07-31T07:23:59.675Z,3.75
2022-07-31T07:26:30.048Z,3.40
2022-07-31T07:29:00.539Z,3.45
2022-07-31T07:31:31.121Z,3.80
2022-07-31T07:34:01.697Z,4.03
2022-07-31T07:36:32.124Z,3.67
2022-07-31T07:39:05.313Z,3.80
2022-07-31T07:41:35.762Z,3.53
2022-07-31T07:44:07.150Z,3.50
2022-07-31T07:46:39.313Z,3.80
2022-07-31T07:49:09.853Z,3.65
2022-07-31T07:52:00.059Z,3.75
2022-07-31T07:54:33.485Z,4.20
2022-07-31T07:57:03.867Z,3.70
2022-07-31T07:59:34.324Z,4.00
2022-07-31T08:02:05.094Z,4.10
2022-07-31T08:04:35.773Z,4.10
2022-07-31T08:07:06.863Z,4.50
2022-07-31T08:09:40.167Z,3.85
2022-07-31T08:12:10.582Z,3.90
2022-07-31T08:14:40.992Z,3.92
2022-07-31T08:17:14.996Z,4.18
2022-07-31T08:19:51.333Z,3.90
2022-07-31T08:22:23.455Z,4.20
2022-07-31T08:24:57.120Z,3.97
2022-07-31T08:27:39.922Z,3.50
2022-07-31T08:30:12.680Z,3.45
2022-07-31T08:32:43.207Z,3.20
2022-07-31T08:35:13.837Z,2.95
2022-07-31T08:37:57.567Z,2.80
2022-07-31T08:40:42.977Z,3.00
2022-07-31T08:44:02.331Z,2.50
2022-07-31T08:46:05.632Z,2.30
2022-07-31T08:48:36.659Z,2.13
2022-07-31T08:51:07.901Z,2.00
2022-07-31T08:53:41.611Z,2.10
2022-07-31T08:56:15.495Z,2.00
2022-07-31T08:58:45.971Z,2.08
2022-07-31T09:01:16.890Z,1.60
2022-07-31T09:03:48.985Z,1.70
2022-07-31T09:06:19.747Z,1.63
2022-07-31T09:08:50.390Z,1.60
2022-07-31T09:11:23.533Z,1.45
2022-07-31T09:14:02.435Z,1.30
2022-07-31T09:16:33.706Z,1.58
2022-07-31T09:19:26.343Z,1.52
2022-07-31T09:21:56.871Z,1.50
2022-07-31T09:24:31.502Z,1.45
2022-07-31T09:27:10.951Z,1.35
2022-07-31T09:29:42.230Z,1.40
2022-07-31T09:32:14.055Z,1.33
2022-07-31T09:34:44.830Z,1.30
2022-07-31T09:37:17.417Z,1.50
2022-07-31T09:39:52.968Z,1.30
2022-07-31T09:42:38.931Z,1.20
2022-07-31T09:45:23.891Z,1.40
2022-07-31T09:48:06.551Z,1.20
2022-07-31T09:50:37.394Z,1.50
2022-07-31T09:53:07.853Z,1.50
2022-07-31T09:55:38.212Z,1.60
2022-07-31T09:58:11.275Z,1.30
2022-07-31T10:00:42.291Z,1.60
2022-07-31T10:03:18.976Z,1.52
2022-07-31T10:05:50.448Z,1.75
2022-07-31T10:08:21.983Z,1.80
2022-07-31T10:10:53.074Z,1.80
2022-07-31T10:13:26.736Z,1.95
2022-07-31T10:15:58.104Z,2.00
2022-07-31T10:18:35.693Z,1.70
2022-07-31T10:21:09.564Z,1.90
2022-07-31T10:23:43.123Z,1.60
2022-07-31T10:26:14.317Z,1.60
2022-07-31T10:28:47.568Z,1.70
2022-07-31T10:31:18.173Z,1.70
2022-07-31T10:33:48.834Z,1.83
2022-07-31T10:36:22.744Z,1.80
2022-07-31T10:38:55.759Z,1.70
2022-07-31T10:41:33.473Z,1.80
2022-07-31T10:44:09.881Z,1.70
2022-07-31T10:46:40.463Z,1.50
2022-07-31T10:49:12.985Z,1.60
2022-07-31T10:51:50.112Z,1.50
2022-07-31T11:01:55.373Z,1.75
2022-07-31T11:04:30.747Z,1.70
2022-07-31T11:07:01.667Z,1.77
2022-07-31T11:09:32.813Z,1.60
2022-07-31T11:12:21.782Z,1.45
2022-07-31T11:14:52.115Z,1.48
2022-07-31T12:16:04.392Z,2.08
2022-07-31T12:18:36.507Z,2.10
2022-07-31T12:21:07.664Z,2.08
2022-07-31T12:23:44.107Z,1.85
2022-07-31T12:26:17.255Z,1.77
2022-07-31T12:28:47.695Z,2.00
2022-07-31T12:31:20.693Z,2.00
2022-07-31T12:33:54.858Z,2.00
2022-07-31T12:36:25.311Z,2.10
2022-07-31T12:39:02.850Z,2.08
2022-07-31T12:46:40.529Z,2.00
2022-07-31T12:54:20.082Z,2.25
2022-07-31T12:56:50.429Z,2.35
2022-07-31T13:11:58.046Z,2.30
2022-07-31T13:14:28.661Z,2.20
2022-07-31T13:16:59.412Z,2.35
2022-07-31T13:19:31.209Z,2.40
2022-07-31T13:22:01.604Z,2.35
2022-07-31T13:24:31.930Z,2.30
2022-07-31T13:27:05.313Z,2.10
2022-07-31T13:29:36.254Z,2.20
2022-07-31T13:32:06.694Z,1.80
2022-07-31T13:34:37.057Z,2.20
2022-07-31T13:37:07.567Z,2.10
2022-07-31T13:39:38.063Z,2.30
2022-07-31T13:42:11.243Z,2.20
2022-07-31T13:44:42.042Z,2.50
2022-07-31T13:47:12.461Z,2.50
2022-07-31T13:59:46.274Z,2.40
2022-07-31T14:02:17.207Z,2.53
2022-07-31T14:04:47.844Z,2.30
2022-07-31T14:07:19.782Z,2.42
2022-07-31T14:09:55.261Z,2.63
2022-07-31T14:12:29.847Z,2.63
2022-07-31T14:15:04.699Z,2.67
2022-07-31T14:17:35.054Z,2.40
2022-07-31T14:20:05.566Z,2.38
2022-07-31T14:22:36.040Z,2.65
2022-07-31T14:25:06.529Z,2.70
2022-07-31T14:27:38.748Z,2.78
2022-07-31T14:30:12.637Z,2.60
2022-07-31T14:32:50.719Z,2.75
2022-07-31T14:35:21.189Z,2.63
2022-07-31T14:37:51.607Z,2.70
2022-07-31T14:40:22.502Z,2.80
2022-07-31T14:42:52.914Z,2.90
2022-07-31T14:45:27.052Z,3.08
2022-07-31T14:47:58.096Z,2.75
2022-07-31T14:50:28.644Z,2.67
2022-07-31T14:52:59.507Z,2.80
2022-07-31T14:55:30.040Z,2.72
2022-07-31T14:58:04.730Z,2.60
2022-07-31T15:00:37.861Z,2.70
2022-07-31T15:03:10.022Z,2.83
2022-07-31T15:06:53.674Z,2.53
2022-07-31T15:08:30.893Z,2.80
2022-07-31T15:11:01.216Z,3.50
2022-07-31T15:13:34.942Z,3.40
2022-07-31T15:16:26.964Z,3.40
2022-07-31T15:18:58.231Z,3.30
2022-07-31T15:21:29.299Z,3.40
2022-07-31T15:23:59.831Z,2.90
2022-07-31T15:26:30.437Z,3.30
2022-07-31T15:31:33.806Z,3.10
2022-07-31T15:34:06.923Z,3.00
2022-07-31T15:41:37.938Z,2.70
2022-07-31T15:44:08.544Z,2.75
2022-07-31T15:46:41.644Z,2.53
2022-07-31T15:49:12.654Z,2.65
2022-07-31T15:51:42.972Z,2.97
2022-07-31T15:54:13.538Z,2.95
2022-07-31T15:56:43.847Z,2.72
2022-07-31T15:59:14.115Z,2.60
2022-07-31T16:01:47.037Z,2.70
2022-07-31T16:04:17.371Z,3.10
2022-07-31T16:06:50.511Z,2.92
2022-07-31T16:09:23.986Z,3.40
2022-07-31T16:12:04.444Z,4.40
2022-07-31T16:14:35.857Z,4.60
2022-07-31T16:17:08.959Z,4.30
2022-07-31T16:19:39.545Z,4.28
2022-07-31T16:22:09.948Z,4.25
2022-07-31T16:24:40.206Z,4.32
2022-07-31T16:27:10.531Z,4.70
2022-07-31T16:29:59.009Z,4.15
2022-07-31T16:35:03.822Z,3.97
2022-07-31T16:37:49.906Z,4.18
2022-07-31T16:40:29.007Z,4.00
2022-07-31T16:43:01.903Z,4.40
2022-07-31T19:28:27.432Z,4.30
2022-07-31T19:30:58.133Z,4.03
2022-07-31T19:33:28.416Z,4.47
2022-07-31T19:36:01.756Z,3.85
2022-07-31T19:38:32.600Z,4.38
2022-07-31T19:41:03.150Z,4.40
2022-07-31T19:43:36.014Z,4.53
2022-07-31T19:46:11.393Z,4.40
2022-07-31T19:48:43.703Z,4.20
2022-07-31T19:51:14.368Z,5.10
